Wanatah, Indiana
Current Conditions -  °F | °C
As of 6:56 PM on Tuesday 27 Jan 2015 (Local Time) from KVPZ Reporting Station
Clear Clear  
Wind Chill: 23°   Ceiling: Unl
Heat Index: 23°   Visibility: 10mi
Dew Point: 14°   Wind: 0mph
Humidity: 68%   Direction: NA
Pressure: 30.24"   Gusts: NA
Location:  41.43°N, 86.9°W
Report Text: KVPZ 280056Z AUTO 00000KT 10SM CLR M05/M10 A3024 RMK AO2 SLP253 T10501100 TSNO
Loading
Personal Weather Stations






























Interactive Weather Map New forecast layout! Learn more

10-Day Weather Forecast

Advertisements
Track Severe Weather on mobile